• Join FlightAware (Why Join?)
  • Login
  • US Flag 
07:20AM EDT


 

Airport Tracker/Info


-or-


 

Live Flight TrackerFlight Track Log ✈ SWA1464 ✈ 14-Dec-2013 ✈ KSJC - KPDX

Flight Track Log - Related Links

Times and Time Zones

All times are in EST time to prevent confusion due to time zone crossing. See the SWA1464 flight status page for this flight to view local times or setup timezone preferences in your user account.

Time Position Orientation Groundspeed Altitude Reporting Facility
EST Latitude Longitude Course Direction KTS MPH feet Rate Location/Type
11:02AM 37.3833 -121.9500 322° Northwest 153 176 1,200  Level Northern Cal TRACON
11:03AM 37.4167 -121.9833 322° Northwest 201 231 3,300 1,980 Climbing Northern Cal TRACON
11:04AM 37.4333 -121.9333 67° East 229 264 5,000 1,080 Climbing Northern Cal TRACON
11:05AM 37.3833 -121.8833 142° Southeast 228 262 5,400 1,320 Climbing Northern Cal TRACON
11:06AM 37.3667 -121.8561 128° Southeast 231 266 7,000 3,600 Climbing Oakland Center
11:07AM 37.3114 -121.8206 153° Southeast 240 276 10,800 3,120 Climbing Oakland Center
11:08AM 37.2953 -121.8967 255° West 265 305 13,400 1,980 Climbing Oakland Center
11:09AM 37.3767 -121.9436 335° Northwest 328 377 14,900 1,860 Climbing Oakland Center
11:10AM 37.4758 -121.9561 354° North 355 409 17,300 2,400 Climbing Oakland Center
11:11AM 37.5794 -121.9675 355° North 371 427 19,800 2,400 Climbing Oakland Center
11:12AM 37.6875 -121.9800 355° North 388 447 22,300 2,520 Climbing Oakland Center
11:13AM 37.8006 -121.9911 356° North 407 468 25,000 2,460 Climbing Oakland Center
11:14AM 37.9144 -122.0031 355° North 413 475 27,400 2,340 Climbing Oakland Center
11:15AM 38.0533 -122.0192 355° North 420 483 29,800 2,280 Climbing Oakland Center
11:16AM 38.1697 -122.0319 355° North 424 488 32,100 2,100 Climbing Oakland Center
11:17AM 38.2856 -122.0453 355° North 421 484 34,100 1,800 Climbing Oakland Center
11:18AM 38.3994 -122.0578 355° North 415 478 35,800 1,620 Climbing Oakland Center
11:19AM 38.5125 -122.0694 355° North 411 473 37,500 1,620 Climbing Oakland Center
11:20AM 38.6239 -122.0828 355° North 405 466 39,100 1,200 Climbing Oakland Center
11:21AM 38.7383 -122.0958 355° North 395 455 40,000 420 Climbing Oakland Center
11:22AM 38.8494 -122.1078 355° North 397 457 40,000  Level Oakland Center
11:23AM 38.9600 -122.1194 355° North 397 457 40,000  Level Oakland Center
11:24AM 39.0706 -122.1336 354° North 398 458 40,000  Level Oakland Center
11:25AM 39.1806 -122.1453 355° North 395 455 40,000  Level Oakland Center
11:26AM 39.2894 -122.1564 355° North 392 451 40,000  Level Oakland Center
11:27AM 39.3989 -122.1689 355° North 393 452 40,000  Level Oakland Center
11:28AM 39.5108 -122.1822 355° North 392 451 40,000  Level Oakland Center
11:29AM 39.6214 -122.1942 355° North 397 457 40,000  Level Oakland Center
11:30AM 39.7531 -122.2089 355° North 398 458 40,000  Level Oakland Center
11:31AM 39.8636 -122.2217 355° North 400 460 40,000  Level Oakland Center
11:32AM 39.9750 -122.2344 355° North 403 464 40,000  Level Oakland Center
11:33AM 40.0836 -122.2442 356° North 399 459 40,000  Level Oakland Center
11:34AM 40.1992 -122.2644 352° North 413 475 40,000  Level Oakland Center
11:35AM 40.3031 -122.2742 356° North 408 470 40,000  Level Oakland Center
11:36AM 40.4375 -122.2894 355° North 405 466 40,000  Level Oakland Center
11:37AM 40.5475 -122.3031 355° North 399 459 40,000  Level Oakland Center
11:38AM 40.6569 -122.3150 355° North 397 457 40,000  Level Oakland Center
11:39AM 40.7669 -122.3272 355° North 397 457 40,000  Level Oakland Center
11:40AM 40.8764 -122.3408 355° North 397 457 40,000  Level Oakland Center
11:41AM 40.9861 -122.3528 355° North 398 458 40,000  Level Oakland Center
11:42AM 41.0975 -122.3667 355° North 401 461 40,000  Level Oakland Center
11:43AM 41.2086 -122.3836 353° North 403 464 40,000  Level Oakland Center
11:44AM 41.3200 -122.3961 355° North 402 463 40,000  Level Oakland Center
11:45AM 41.3850 -122.4050 354° North 401 461 40,000  Level Seattle Center
11:46AM 41.5081 -122.4197 355° North 402 463 40,000  Level Seattle Center
11:47AM 41.6192 -122.4325 355° North 401 461 40,000  Level Seattle Center
11:48AM 41.7300 -122.4469 354° North 400 460 40,000  Level Seattle Center
11:49AM 41.8419 -122.4592 355° North 401 461 40,000  Level Seattle Center
11:50AM 41.9536 -122.4725 355° North 401 461 40,000  Level Seattle Center
11:51AM 42.0639 -122.4867 355° North 396 456 40,000  Level Seattle Center
11:52AM 42.1744 -122.5008 355° North 395 455 40,000  Level Seattle Center
11:53AM 42.2836 -122.5117 356° North 393 452 40,000  Level Seattle Center
11:54AM 42.3931 -122.5242 355° North 393 452 40,000  Level Seattle Center
11:55AM 42.5028 -122.5403 354° North 393 452 40,000  Level Seattle Center
11:56AM 42.6128 -122.5519 356° North 395 455 40,000  Level Seattle Center
11:57AM 42.7233 -122.5658 355° North 397 457 40,000  Level Seattle Center
11:58AM 42.8308 -122.5797 355° North 398 458 40,000  Level Seattle Center
11:59AM 42.9414 -122.5944 354° North 399 459 40,000  Level Seattle Center
12:00PM 43.0514 -122.6097 354° North 399 459 40,000  Level Seattle Center
12:01PM 43.1611 -122.6219 355° North 397 457 40,000  Level Seattle Center
12:02PM 43.2692 -122.6369 354° North 391 450 40,000  Level Seattle Center
12:03PM 43.3761 -122.6503 355° North 389 448 40,000 -60 Level Seattle Center
12:04PM 43.5058 -122.6667 355° North 392 451 39,900 -780 Descending Seattle Center
12:05PM 43.6119 -122.6822 354° North 385 443 38,500 -1,140 Descending Seattle Center
12:06PM 43.7217 -122.6958 355° North 398 458 37,700 -900 Descending Seattle Center
12:07PM 43.8364 -122.7106 355° North 413 475 36,700 -1,980 Descending Seattle Center
12:08PM 43.9475 -122.7247 355° North 405 466 33,800 -2,880 Descending Seattle Center
12:09PM 44.0614 -122.7392 355° North 411 473 31,000 -2,580 Descending Seattle Center
12:10PM 44.1722 -122.7503 356° North 404 465 28,600 -2,340 Descending Seattle Center
12:11PM 44.2811 -122.7386 North 396 456 26,300 -2,460 Descending Seattle Center
12:12PM 44.4003 -122.7283 North 391 450 23,700 -2,400 Descending Seattle Center
12:13PM 44.5047 -122.7183 North 382 440 21,500 -2,160 Descending Seattle Center
12:14PM 44.6067 -122.7069 North 372 428 19,400 -2,040 Descending Seattle Center
12:15PM 44.6539 -122.7058 North 365 420 18,600 -1,680 Descending Seattle Center
12:15PM 44.7044 -122.6983 North 360 414 17,700 -1,440 Descending Seattle Center
12:16PM 44.7431 -122.6972 North 347 399 17,300 -1,920 Descending Seattle Center
12:16PM 44.7997 -122.6894 North 350 403 15,800 -2,400 Descending Seattle Center
12:17PM 44.8383 -122.6864 North 346 398 14,900 -2,280 Descending Seattle Center
12:17PM 44.8958 -122.6786 North 348 400 13,500 -2,220 Descending Seattle Center
12:18PM 44.9336 -122.6756 North 342 394 12,700 -1,500 Descending Seattle Center
12:18PM 44.9878 -122.6708 North 340 391 12,000 -720 Descending Seattle Center
12:19PM 45.0231 -122.6669 North 324 373 12,000  Level Seattle Center
12:19PM 45.0753 -122.6619 North 325 374 12,000  Level Seattle Center
12:20PM 45.1097 -122.6564 North 311 358 12,000 -300 Level Seattle Center
12:20PM 45.1606 -122.6600 357° North 319 367 11,700 -1,020 Descending Seattle Center
12:21PM 45.1928 -122.6811 335° Northwest 306 352 11,000 -1,620 Descending Seattle Center
12:21PM 45.2356 -122.7069 337° Northwest 301 346 10,100 -1,500 Descending Seattle Center
12:22PM 45.2736 -122.7281 339° North 289 333 9,500 -1,380 Descending Seattle Center
12:22PM 45.3083 -122.7489 337° Northwest 287 330 8,700 -1,500 Descending Seattle Center
12:23PM 45.3456 -122.7728 336° Northwest 279 321 8,000 -1,800 Descending Seattle Center
12:23PM 45.3936 -122.8019 337° Northwest 281 323 6,900 -1,500 Descending Seattle Center
12:24PM 45.4167 -122.8147 339° North 275 316 6,500 -1,620 Descending Seattle Center
12:24PM 45.4636 -122.8439 336° Northwest 278 320 5,300 -1,740 Descending Seattle Center
12:25PM 45.4858 -122.8575 337° Northwest 270 311 4,800 -1,800 Descending Seattle Center
12:25PM 45.5294 -122.8900 332° Northwest 270 311 3,500 -1,680 Descending Seattle Center
12:26PM 45.5511 -122.9022 338° Northwest 258 297 3,100 -540 Descending Seattle Center
12:26PM 45.5925 -122.9311 334° Northwest 258 297 3,000 -120 Descending Seattle Center
12:27PM 45.6114 -122.9333 355° North 229 264 3,000  Level Seattle Center
12:27PM 45.6494 -122.9092 24° Northeast 231 266 3,000  Level Seattle Center
12:28PM 45.6661 -122.8928 34° Northeast 216 249 3,000 60 Level Seattle Center
12:29PM 45.6711 -122.8197 84° East 200 230 3,100 -420 Climbing Seattle Center
12:30PM 45.6472 -122.7553 118° Southeast 180 207 2,200 -900 Descending Seattle Center
12:30PM 45.6319 -122.7183 121° Southeast 187 215 1,600 -840 Descending Seattle Center
12:31PM 45.6253 -122.6994 117° Southeast 143 165 1,400 -720 Descending Seattle Center
12:31PM 45.6128 -122.6706 122° Southeast 168 193 900 -720 Descending Seattle Center
12:32PM 45.6075 -122.6542 115° Southeast 115 132 600 -300 Descending Seattle Center
12:32PM 45.5956 -122.6256 121° Southeast 163 188 600  Level Seattle Center
12:34PM 45.5887 -122.5969 103° East  Level Estimated